Time;durP1;ratioP1;P1;durP2;ratioP2;P2;SDS_P1;SDS_P2;PMS_P1;PMS_P2;Temp;Humidity;BMP_temperature;BMP_pressure;BME280_temperature;BME280_humidity;BME280_pressure;Samples;Min_cycle;Max_cycle;Signal;HPM_P1;HPM_P2
2022/11/07 00:02:04;;;;;;;7.65;2.53;;;;;;;8.70;100.00;100649.44;6122340;23;20013;-84
2022/11/07 00:04:30;;;;;;;10.73;3.17;;;;;;;8.76;100.00;100654.59;6121951;23;20561;-85
2022/11/07 00:06:58;;;;;;;8.95;3.08;;;;;;;8.80;100.00;100662.91;6122775;23;20446;-85
2022/11/07 00:09:23;;;;;;;5.88;2.70;;;;;;;8.70;100.00;100650.22;6122403;23;20427;-84
2022/11/07 00:11:49;;;;;;;8.20;2.37;;;;;;;8.72;100.00;100660.69;6123203;23;20085;-85
2022/11/07 00:14:15;;;;;;;6.80;2.60;;;;;;;8.72;100.00;100666.81;6124511;23;20431;-84
2022/11/07 00:16:42;;;;;;;7.90;2.60;;;;;;;8.68;100.00;100667.56;6074157;23;20014;-84
2022/11/07 00:19:07;;;;;;;9.13;2.45;;;;;;;8.64;100.00;100673.41;6124303;23;20005;-85
2022/11/07 00:21:33;;;;;;;11.70;2.85;;;;;;;8.60;100.00;100671.47;6122587;23;20002;-85
2022/11/07 00:23:59;;;;;;;5.27;2.13;;;;;;;8.51;100.00;100673.78;6121353;23;20074;-84
2022/11/07 00:26:24;;;;;;;7.63;2.50;;;;;;;8.42;100.00;100664.53;6123219;23;20010;-85
2022/11/07 00:28:49;;;;;;;8.90;3.00;;;;;;;8.38;100.00;100674.91;6123193;23;20009;-85
2022/11/07 00:31:16;;;;;;;7.27;2.93;;;;;;;8.37;100.00;100686.66;6096214;23;20382;-85
2022/11/07 00:33:43;;;;;;;14.23;2.85;;;;;;;8.32;100.00;100676.72;6122464;23;20033;-84
2022/11/07 00:36:14;;;;;;;10.15;2.97;;;;;;;8.19;100.00;100664.50;6122952;23;20013;-85
2022/11/07 00:38:41;;;;;;;12.02;3.03;;;;;;;8.27;100.00;100671.28;6124372;23;20326;-85
2022/11/07 00:41:09;;;;;;;7.53;2.65;;;;;;;8.41;100.00;100681.59;6097710;23;20439;-85
2022/11/07 00:43:34;;;;;;;5.73;2.27;;;;;;;8.34;100.00;100673.78;6124134;23;20061;-85
2022/11/07 00:46:05;;;;;;;8.57;2.60;;;;;;;8.37;100.00;100675.97;6123753;23;20006;-85
2022/11/07 00:48:31;;;;;;;8.23;2.90;;;;;;;8.32;100.00;100681.22;6125027;23;20006;-85
2022/11/07 00:50:56;;;;;;;9.40;2.57;;;;;;;8.36;100.00;100687.69;6123217;23;20006;-85
2022/11/07 00:58:33;;;;;;;13.43;3.92;;;;;;;8.31;100.00;100684.94;6139567;23;20025;-84
2022/11/07 01:00:58;;;;;;;11.50;2.67;;;;;;;8.33;100.00;100688.19;6153807;23;20048;-84
2022/11/07 01:06:09;;;;;;;10.88;2.67;;;;;;;8.30;100.00;100692.16;6153913;23;20016;-84
2022/11/07 01:08:35;;;;;;;8.40;2.45;;;;;;;8.30;100.00;100684.16;6153620;23;20068;-84
2022/11/07 01:11:05;;;;;;;12.77;2.75;;;;;;;8.27;100.00;100694.53;6126577;23;20005;-84
2022/11/07 01:13:31;;;;;;;9.85;2.90;;;;;;;8.19;100.00;100680.53;6153353;23;20087;-84
2022/11/07 01:15:57;;;;;;;7.70;2.20;;;;;;;8.23;100.00;100702.19;6153703;23;20010;-84
2022/11/07 01:18:22;;;;;;;10.53;2.70;;;;;;;8.27;100.00;100692.66;6152261;23;20002;-84
2022/11/07 01:20:48;;;;;;;5.03;2.50;;;;;;;8.31;100.00;100707.13;6152193;23;20002;-84
2022/11/07 01:23:14;;;;;;;9.30;2.53;;;;;;;8.38;100.00;100716.84;6152936;23;20009;-84
2022/11/07 01:25:41;;;;;;;12.10;2.97;;;;;;;8.31;100.00;100709.78;6153631;23;20605;-84
2022/11/07 01:28:07;;;;;;;13.38;2.88;;;;;;;8.41;100.00;100725.16;6152988;23;20457;-84
2022/11/07 01:30:36;;;;;;;11.15;2.75;;;;;;;8.43;100.00;100711.53;6152995;23;20088;-84
2022/11/07 01:33:02;;;;;;;10.98;2.90;;;;;;;8.42;100.00;100716.09;6152828;23;20096;-84
2022/11/07 01:35:27;;;;;;;9.90;2.60;;;;;;;8.42;100.00;100712.59;6153000;23;20005;-84
2022/11/07 01:37:52;;;;;;;7.43;2.50;;;;;;;8.35;100.00;100718.13;6153039;23;20418;-84
2022/11/07 01:40:18;;;;;;;7.07;2.43;;;;;;;8.36;100.00;100726.94;6153007;23;20002;-84
2022/11/07 01:42:43;;;;;;;11.23;3.45;;;;;;;8.37;100.00;100709.88;6153286;23;20041;-84
2022/11/07 01:45:19;;;;;;;8.20;2.67;;;;;;;8.47;100.00;100721.50;6153232;23;20067;-84
2022/11/07 01:47:44;;;;;;;8.55;2.70;;;;;;;8.55;100.00;100716.81;6151868;23;20009;-84
2022/11/07 01:50:10;;;;;;;11.97;2.83;;;;;;;8.55;100.00;100719.47;6152835;23;20006;-84
2022/11/07 01:52:39;;;;;;;13.80;3.28;;;;;;;8.58;100.00;100724.34;6152590;23;20027;-84
2022/11/07 01:55:22;;;;;;;9.10;2.80;;;;;;;8.51;100.00;100716.50;6155603;23;20009;-84
2022/11/07 01:57:54;;;;;;;15.47;3.80;;;;;;;8.54;100.00;100713.34;6157418;23;20760;-84
2022/11/07 02:00:22;;;;;;;14.50;3.10;;;;;;;8.53;100.00;100718.91;6155922;23;20014;-84
2022/11/07 02:02:55;;;;;;;12.15;2.65;;;;;;;8.48;100.00;100717.00;6156250;23;20617;-84
2022/11/07 02:05:30;;;;;;;7.60;2.75;;;;;;;8.46;100.00;100719.06;6153490;23;20016;-84
2022/11/07 02:07:56;;;;;;;8.57;2.58;;;;;;;8.45;100.00;100728.13;6152813;23;20081;-84
2022/11/07 02:10:22;;;;;;;7.60;2.42;;;;;;;8.45;100.00;100720.13;6152499;23;20056;-84
2022/11/07 02:12:48;;;;;;;8.90;2.87;;;;;;;8.50;100.00;100725.56;6152831;23;20496;-84
2022/11/07 02:15:13;;;;;;;12.77;3.05;;;;;;;8.47;100.00;100726.03;6152913;23;20370;-84
2022/11/07 02:17:39;;;;;;;13.10;3.08;;;;;;;8.57;100.00;100720.06;6152270;23;20001;-84
2022/11/07 02:20:05;;;;;;;10.30;2.47;;;;;;;8.52;100.00;100727.97;6152084;23;20005;-84
2022/11/07 02:22:44;;;;;;;9.88;2.92;;;;;;;8.44;100.00;100718.50;6153293;23;20032;-84
2022/11/07 02:25:13;;;;;;;13.70;2.80;;;;;;;8.49;100.00;100730.09;6151980;23;20012;-84
2022/11/07 02:27:40;;;;;;;13.15;2.55;;;;;;;8.41;100.00;100713.66;6152961;23;20579;-84
2022/11/07 02:30:08;;;;;;;13.45;2.70;;;;;;;8.41;100.00;100733.16;6152816;23;20370;-84
2022/11/07 02:32:34;;;;;;;9.17;3.00;;;;;;;8.37;100.00;100720.56;6126195;23;20032;-84
2022/11/07 02:35:34;;;;;;;13.67;2.73;;;;;;;8.44;100.00;100738.03;6152772;23;20245;-84
2022/11/07 02:38:09;;;;;;;9.93;2.50;;;;;;;8.43;100.00;100748.94;6142149;23;20009;-84
2022/11/07 02:40:35;;;;;;;17.47;3.17;;;;;;;8.37;100.00;100733.91;6151002;23;20013;-84
2022/11/07 02:43:01;;;;;;;12.70;2.40;;;;;;;8.39;100.00;100735.28;6152203;23;20261;-84
2022/11/07 02:45:33;;;;;;;11.50;2.90;;;;;;;8.55;100.00;100735.50;6152381;23;20055;-84
2022/11/07 02:47:59;;;;;;;15.50;2.78;;;;;;;8.59;100.00;100721.41;6152561;23;20013;-84
2022/11/07 02:50:24;;;;;;;16.03;3.13;;;;;;;8.70;100.00;100718.88;6151818;23;20009;-84
2022/11/07 02:52:49;;;;;;;12.33;2.50;;;;;;;8.66;100.00;100717.75;6152534;23;20032;-84
2022/11/07 02:55:15;;;;;;;12.10;2.57;;;;;;;8.68;100.00;100721.78;6152929;23;20017;-84
2022/11/07 02:57:41;;;;;;;13.27;2.92;;;;;;;8.70;100.00;100735.72;6152316;23;20434;-84
2022/11/07 03:00:09;;;;;;;15.07;2.88;;;;;;;8.68;100.00;100734.34;6151586;23;20014;-84
2022/11/07 03:02:34;;;;;;;10.65;2.60;;;;;;;8.53;100.00;100713.56;6152532;23;20009;-84
2022/11/07 03:04:59;;;;;;;16.23;2.83;;;;;;;8.56;100.00;100727.28;6151961;23;20365;-84
2022/11/07 03:07:25;;;;;;;18.87;3.47;;;;;;;8.64;100.00;100726.81;6151721;23;20041;-84
2022/11/07 03:09:50;;;;;;;13.73;2.63;;;;;;;8.68;100.00;100726.34;6151678;23;20049;-84
2022/11/07 03:12:17;;;;;;;14.18;2.90;;;;;;;8.65;100.00;100730.31;6152505;23;20010;-83
2022/11/07 03:14:42;;;;;;;17.17;2.97;;;;;;;8.68;100.00;100723.66;6151804;23;20448;-84
2022/11/07 03:17:08;;;;;;;16.13;2.60;;;;;;;8.60;100.00;100720.34;6152836;23;20002;-84
2022/11/07 03:19:33;;;;;;;9.70;2.73;;;;;;;8.54;100.00;100718.69;6152302;23;20333;-84
2022/11/07 03:21:58;;;;;;;12.13;2.90;;;;;;;8.62;100.00;100736.16;6151555;23;20018;-84
2022/11/07 03:24:24;;;;;;;19.70;3.10;;;;;;;8.61;100.00;100735.31;6153057;23;20422;-85
2022/11/07 03:26:49;;;;;;;10.30;2.80;;;;;;;8.55;100.00;100724.81;6152749;23;20397;-85
2022/11/07 03:29:15;;;;;;;9.60;2.58;;;;;;;8.59;100.00;100729.41;6151606;23;20021;-84
2022/11/07 03:31:40;;;;;;;13.03;2.50;;;;;;;8.48;100.00;100723.16;6160175;23;20009;-84
2022/11/07 03:34:05;;;;;;;12.97;2.50;;;;;;;8.57;100.00;100731.56;6151010;23;20445;-84
2022/11/07 03:36:30;;;;;;;5.43;2.40;;;;;;;8.51;100.00;100721.84;6151344;23;20049;-84
2022/11/07 03:38:56;;;;;;;20.33;2.90;;;;;;;8.54;100.00;100718.69;6125043;23;20117;-84
2022/11/07 03:41:21;;;;;;;14.88;2.60;;;;;;;8.52;100.00;100720.78;6151955;23;20061;-84
2022/11/07 03:43:47;;;;;;;14.20;2.93;;;;;;;8.56;100.00;100732.59;6150522;23;20010;-84
2022/11/07 03:46:14;;;;;;;19.50;2.97;;;;;;;8.68;100.00;100731.69;6152962;23;20461;-84
2022/11/07 03:48:41;;;;;;;17.57;2.40;;;;;;;8.67;100.00;100724.72;6151956;23;20273;-84
2022/11/07 03:51:07;;;;;;;15.77;3.17;;;;;;;8.81;100.00;100722.50;6126041;23;20442;-84
2022/11/07 03:53:33;;;;;;;13.75;2.60;;;;;;;8.85;100.00;100726.28;6151972;23;20018;-84
2022/11/07 03:55:59;;;;;;;20.35;2.88;;;;;;;8.91;100.00;100731.44;6152187;23;20488;-84
2022/11/07 03:58:25;;;;;;;13.63;2.50;;;;;;;8.98;100.00;100741.13;6152007;23;20006;-85
2022/11/07 04:00:50;;;;;;;15.15;2.70;;;;;;;9.01;100.00;100737.97;6151377;23;20006;-85
2022/11/07 04:03:16;;;;;;;13.73;2.70;;;;;;;8.99;100.00;100721.38;6150961;23;20009;-85
2022/11/07 04:05:41;;;;;;;14.13;2.45;;;;;;;9.04;100.00;100730.25;6151084;23;20460;-85
2022/11/07 04:17:17;;;;;;;16.92;3.05;;;;;;;9.09;100.00;100732.97;6151788;23;20016;-85
2022/11/07 04:19:25;;;;;;;13.57;2.40;;;;;;;9.13;100.00;100729.81;6154342;23;20256;-84
2022/11/07 04:21:51;;;;;;;10.75;2.35;;;;;;;9.09;100.00;100729.50;6152978;23;20421;-84
2022/11/07 04:24:16;;;;;;;16.80;2.90;;;;;;;9.10;100.00;100728.47;6154609;23;20081;-84
2022/11/07 04:29:25;;;;;;;15.00;2.33;;;;;;;9.10;100.00;100728.47;6153304;23;20028;-84
2022/11/07 04:31:51;;;;;;;12.03;2.40;;;;;;;9.12;100.00;100742.38;6153451;23;20005;-85
2022/11/07 04:34:16;;;;;;;14.27;2.77;;;;;;;9.04;100.00;100730.25;6152870;23;20345;-84
2022/11/07 04:36:41;;;;;;;15.10;2.70;;;;;;;8.94;100.00;100744.31;6154081;23;20005;-84
2022/11/07 04:39:08;;;;;;;14.77;2.38;;;;;;;8.82;100.00;100737.47;6154558;23;20005;-84
2022/11/07 04:41:33;;;;;;;18.00;2.40;;;;;;;8.80;100.00;100748.41;6154396;23;20358;-84
2022/11/07 04:43:58;;;;;;;18.92;2.70;;;;;;;8.71;100.00;100731.97;6154541;23;20012;-84
2022/11/07 04:46:23;;;;;;;17.40;2.70;;;;;;;8.69;100.00;100727.94;6156800;23;20032;-83
2022/11/07 04:48:49;;;;;;;14.77;2.77;;;;;;;8.80;100.00;100740.38;6165598;23;19997;-84
2022/11/07 04:51:19;;;;;;;17.23;2.20;;;;;;;8.82;100.00;100743.63;6165837;23;19998;-84
2022/11/07 04:53:44;;;;;;;20.95;2.70;;;;;;;8.77;100.00;100740.88;6165217;23;20064;-84
2022/11/07 04:56:09;;;;;;;12.43;2.03;;;;;;;8.76;100.00;100734.72;6159589;23;20025;-84
2022/11/07 04:58:35;;;;;;;21.83;2.40;;;;;;;8.74;100.00;100741.38;6153817;23;20013;-84
2022/11/07 05:01:00;;;;;;;19.73;2.77;;;;;;;8.84;100.00;100741.50;6153418;23;20081;-84
2022/11/07 05:03:25;;;;;;;21.30;2.60;;;;;;;8.89;100.00;100744.25;6153510;23;20033;-84
2022/11/07 05:05:51;;;;;;;13.57;1.97;;;;;;;8.96;100.00;100737.88;6153762;23;20044;-88
2022/11/07 05:08:16;;;;;;;18.30;2.23;;;;;;;9.06;100.00;100746.84;6154151;23;20028;-87
2022/11/07 05:13:51;;;;;;;14.13;2.40;;;;;;;8.87;100.00;100708.13;6151818;23;20032;-89
2022/11/07 05:16:22;;;;;;;15.32;2.30;;;;;;;8.89;100.00;100701.50;6152342;23;20005;-90
2022/11/07 05:18:51;;;;;;;12.57;2.08;;;;;;;8.99;100.00;100738.22;6154580;23;20001;-88
2022/11/07 05:24:48;;;;;;;16.70;2.22;;;;;;;8.73;100.00;100721.06;6005798;23;20025;-88
2022/11/07 05:28:37;;;;;;;;;;;;;;;;;;;;;
2022/11/07 05:47:20;;;;;;;17.27;2.13;;;;;;;9.21;100.00;100772.16;6033614;23;20035;-89
2022/11/07 06:00:25;;;;;;;11.50;2.05;;;;;;;9.13;100.00;100770.72;6184023;23;20084;-90
2022/11/07 06:03:00;;;;;;;8.15;1.83;;;;;;;8.94;100.00;100735.47;6061803;23;20458;-89
2022/11/07 06:05:26;;;;;;;24.73;2.37;;;;;;;9.19;100.00;100771.59;6140180;23;20009;-89
2022/11/07 06:07:51;;;;;;;15.47;2.10;;;;;;;9.04;100.00;100730.25;6126447;23;20343;-89
2022/11/07 06:10:23;;;;;;;16.50;2.10;;;;;;;9.14;100.00;100740.25;6152905;23;20024;-88
2022/11/07 06:13:03;;;;;;;20.40;2.40;;;;;;;9.28;100.00;100748.69;6153985;23;20036;-90
2022/11/07 06:15:31;;;;;;;11.77;2.00;;;;;;;9.17;100.00;100722.91;6125341;23;20285;-88
2022/11/07 06:18:01;;;;;;;15.45;2.22;;;;;;;9.47;100.00;100753.69;6152863;23;20002;-88
2022/11/07 06:20:28;;;;;;;19.52;2.20;;;;;;;9.50;100.00;100759.34;6127184;23;20017;-88
2022/11/07 06:22:58;;;;;;;12.75;2.55;;;;;;;9.43;100.00;100763.28;6153550;23;20013;-89
2022/11/07 06:25:23;;;;;;;14.90;2.53;;;;;;;9.44;100.00;100764.91;6153808;23;20016;-90
2022/11/07 06:27:48;;;;;;;19.77;2.20;;;;;;;9.38;100.00;100756.03;6126370;23;20001;-89
2022/11/07 06:30:14;;;;;;;13.50;2.20;;;;;;;9.53;100.00;100776.78;6153688;23;20012;-90
2022/11/07 06:32:58;;;;;;;16.73;2.53;;;;;;;9.39;100.00;100738.91;6153041;23;20330;-89
2022/11/07 06:36:11;;;;;;;;;;;;;;;;;;;;;
2022/11/07 06:39:33;;;;;;;15.27;2.42;;;;;;;9.61;100.00;100788.91;6075224;23;20088;-91
2022/11/07 06:42:26;;;;;;;19.13;2.38;;;;;;;9.35;100.00;100749.31;6124785;23;20056;-90
2022/11/07 06:52:16;;;;;;;15.50;2.20;;;;;;;9.80;100.00;100795.50;6005450;23;20075;-90
2022/11/07 06:54:42;;;;;;;12.57;2.60;;;;;;;9.62;100.00;100767.22;6002678;23;20413;-86
2022/11/07 06:57:13;;;;;;;15.48;2.15;;;;;;;9.81;100.00;100797.13;6032431;23;20010;-90
2022/11/07 06:59:41;;;;;;;19.15;2.35;;;;;;;9.61;100.00;100770.97;6062823;23;20054;-90
2022/11/07 07:02:10;;;;;;;12.23;2.03;;;;;;;9.66;100.00;100759.53;6036044;23;20019;-87
2022/11/07 07:05:21;;;;;;;16.40;2.00;;;;;;;9.89;100.00;100789.69;6036804;23;20415;-88
2022/11/07 07:08:58;;;;;;;13.90;1.70;;;;;;;9.77;100.00;100765.78;4499305;27;18525593;-88
2022/11/07 07:11:23;;;;;;;14.27;2.17;;;;;;;9.70;100.00;100779.34;5233436;22;20337;-88
2022/11/07 07:20:05;;;;;;;15.13;2.00;;;;;;;9.88;100.00;100807.63;5136360;22;20112;-87
2022/11/07 07:23:07;;;;;;;14.13;2.47;;;;;;;9.68;100.00;100776.94;5104568;28;20035;-87
2022/11/07 07:25:32;;;;;;;13.93;2.03;;;;;;;9.73;100.00;100799.44;5102780;28;20035;-93
2022/11/07 07:27:58;;;;;;;19.75;1.85;;;;;;;9.94;100.00;100838.75;5104162;28;20479;-87
2022/11/07 07:30:23;;;;;;;15.03;2.20;;;;;;;10.03;100.00;100827.56;5093378;28;20654;-88
2022/11/07 07:32:49;;;;;;;17.63;2.43;;;;;;;10.02;100.00;100823.25;5112478;28;20023;-88
2022/11/07 07:35:14;;;;;;;10.27;1.85;;;;;;;10.06;100.00;100819.81;5112056;28;20112;-88
2022/11/07 07:37:40;;;;;;;16.93;2.17;;;;;;;10.10;100.00;100814.78;5111003;28;20484;-87
2022/11/07 07:40:06;;;;;;;14.88;1.80;;;;;;;10.23;100.00;100824.25;5129234;28;20028;-88
2022/11/07 07:42:31;;;;;;;14.97;1.90;;;;;;;10.33;100.00;100829.69;5117733;28;20031;-88
2022/11/07 07:44:57;;;;;;;11.40;1.88;;;;;;;10.31;100.00;100831.81;5129622;28;20028;-87
2022/11/07 07:47:22;;;;;;;15.93;1.90;;;;;;;10.40;100.00;100837.53;5117791;28;20487;-88
2022/11/07 07:49:48;;;;;;;16.83;2.27;;;;;;;10.44;100.00;100842.13;5109042;28;20031;-88
2022/11/07 07:52:13;;;;;;;17.30;2.15;;;;;;;10.55;100.00;100839.53;5107457;28;20031;-88
2022/11/07 07:54:40;;;;;;;10.43;1.80;;;;;;;10.54;100.00;100827.19;5106024;28;20466;-88
2022/11/07 07:57:08;;;;;;;14.55;2.05;;;;;;;10.72;100.00;100834.00;5107757;28;20024;-87
2022/11/07 07:59:36;;;;;;;16.35;2.10;;;;;;;10.78;100.00;100845.56;5110366;28;20429;-88
2022/11/07 08:02:02;;;;;;;13.68;2.33;;;;;;;10.80;100.00;100849.63;5112211;28;20245;-88
2022/11/07 08:04:27;;;;;;;11.83;1.60;;;;;;;10.96;100.00;100850.50;5109244;28;20039;-88
2022/11/07 08:06:52;;;;;;;13.80;1.97;;;;;;;11.15;100.00;100863.47;5094500;28;20039;-88
2022/11/07 08:09:17;;;;;;;13.93;2.00;;;;;;;11.20;100.00;100852.78;5087615;28;20051;-88
2022/11/07 08:11:43;;;;;;;9.83;1.80;;;;;;;11.35;100.00;100860.88;5095850;28;20027;-88
2022/11/07 08:14:10;;;;;;;15.87;1.97;;;;;;;11.39;100.00;100861.19;5108186;28;20055;-88
2022/11/07 08:16:35;;;;;;;14.15;2.22;;;;;;;11.42;100.00;100868.69;5107261;28;20031;-88
2022/11/07 08:19:00;;;;;;;14.17;2.30;;;;;;;11.40;100.00;100872.72;5096004;28;20077;-88
2022/11/07 08:21:26;;;;;;;14.15;2.20;;;;;;;11.41;100.00;100861.69;5093204;28;20029;-89
2022/11/07 08:23:53;;;;;;;15.00;2.30;;;;;;;11.54;100.00;100859.63;5114191;28;20019;-88
2022/11/07 08:26:19;;;;;;;12.70;2.22;;;;;;;11.51;100.00;100850.19;5112151;28;20055;-88
2022/11/07 08:28:44;;;;;;;12.30;1.97;;;;;;;11.53;100.00;100856.13;5114134;28;20066;-88
2022/11/07 08:31:13;;;;;;;14.77;2.10;;;;;;;11.53;100.00;100877.59;5112003;28;20516;-88
2022/11/07 08:33:40;;;;;;;9.90;1.60;;;;;;;11.44;100.00;100874.59;5114308;28;20115;-89
2022/11/07 08:36:06;;;;;;;15.00;2.03;;;;;;;11.34;100.00;100874.56;5113484;28;20368;-88
2022/11/07 08:38:33;;;;;;;10.85;2.00;;;;;;;11.24;100.00;100877.19;5113601;28;20094;-88
2022/11/07 08:40:59;;;;;;;11.35;1.65;;;;;;;11.15;100.00;100871.50;5092826;28;20038;-88
2022/11/07 08:43:25;;;;;;;15.83;2.17;;;;;;;11.14;100.00;100881.44;5116215;28;20103;-90
2022/11/07 08:45:52;;;;;;;17.45;2.72;;;;;;;11.06;100.00;100877.38;5126428;28;20036;-89
2022/11/07 08:48:18;;;;;;;18.45;2.53;;;;;;;11.05;100.00;100878.44;5124485;28;20018;-89
2022/11/07 08:50:43;;;;;;;15.20;2.07;;;;;;;11.19;100.00;100894.06;5112564;28;20102;-88
2022/11/07 08:53:09;;;;;;;16.90;2.30;;;;;;;11.32;100.00;100895.47;5113606;28;20273;-88
2022/11/07 08:55:35;;;;;;;14.75;2.47;;;;;;;11.41;100.00;100896.59;5112872;28;20031;-89
2022/11/07 08:58:05;;;;;;;16.80;2.00;;;;;;;11.58;100.00;100900.97;5093344;28;20080;-88
2022/11/07 09:00:32;;;;;;;10.30;2.20;;;;;;;11.71;100.00;100902.34;5112859;28;20108;-89
2022/11/07 09:03:05;;;;;;;17.20;2.10;;;;;;;11.80;100.00;100909.63;5111791;28;20019;-89
2022/11/07 09:05:30;;;;;;;15.27;2.75;;;;;;;11.90;100.00;100906.16;5094423;28;20040;-89
2022/11/07 09:07:55;;;;;;;11.67;2.20;;;;;;;11.99;100.00;100921.78;5094700;28;20507;-89
2022/11/07 09:10:21;;;;;;;16.03;2.10;;;;;;;11.94;100.00;100915.31;5112614;28;20035;-89
2022/11/07 09:12:48;;;;;;;11.00;1.67;;;;;;;12.05;100.00;100926.13;5115834;28;20113;-90
2022/11/07 09:15:16;;;;;;;9.70;2.13;;;;;;;12.10;100.00;100924.25;5124161;28;20293;-90
2022/11/07 09:17:53;;;;;;;8.05;1.70;;;;;;;12.15;100.00;100934.19;5106418;28;20118;-89
2022/11/07 09:20:23;;;;;;;11.63;2.03;;;;;;;12.13;100.00;100916.72;5112819;28;20035;-89
2022/11/07 09:22:48;;;;;;;13.80;2.35;;;;;;;12.10;100.00;100921.56;5112668;28;20438;-88
2022/11/07 09:25:14;;;;;;;14.43;1.93;;;;;;;12.21;100.00;100922.38;5106081;28;20019;-91
2022/11/07 09:27:39;;;;;;;10.05;2.05;;;;;;;12.26;100.00;100925.06;5112197;28;20107;-91
2022/11/07 09:30:05;;;;;;;14.03;2.00;;;;;;;12.38;100.00;100934.75;5105497;28;20047;-90
2022/11/07 09:32:31;;;;;;;19.73;2.40;;;;;;;12.42;100.00;100928.56;5102573;28;20078;-90
2022/11/07 09:34:56;;;;;;;13.90;2.10;;;;;;;12.50;100.00;100938.00;5100722;28;20023;-91
2022/11/07 09:37:21;;;;;;;11.43;2.00;;;;;;;12.53;100.00;100939.31;5110799;28;20027;-91
2022/11/07 09:39:47;;;;;;;14.80;1.77;;;;;;;12.60;100.00;100942.56;5109667;28;20563;-91
2022/11/07 09:42:35;;;;;;;10.70;1.85;;;;;;;12.60;100.00;100944.47;5111763;28;20063;-91
2022/11/07 09:45:01;;;;;;;11.85;2.15;;;;;;;12.57;100.00;100929.66;5108594;28;20569;-91
2022/11/07 09:47:35;;;;;;;12.02;1.98;;;;;;;12.66;100.00;100938.00;5092962;28;20028;-91
2022/11/07 09:50:11;;;;;;;10.38;1.80;;;;;;;12.66;100.00;100946.88;5111285;28;20035;-90
2022/11/07 09:52:44;;;;;;;12.73;1.90;;;;;;;12.73;100.00;100935.84;5092907;28;20054;-91
2022/11/07 09:55:31;;;;;;;13.83;2.13;;;;;;;12.94;100.00;100949.28;5104673;28;20031;-89
2022/11/07 09:58:03;;;;;;;9.47;1.93;;;;;;;12.91;100.00;100942.53;5106382;28;20328;-91
2022/11/07 10:00:30;;;;;;;9.00;1.98;;;;;;;13.01;100.00;100947.09;5111275;28;20054;-91
2022/11/07 10:02:57;;;;;;;12.15;2.30;;;;;;;12.93;100.00;100936.91;5110739;28;20031;-90
2022/11/07 10:06:05;;;;;;;14.43;2.40;;;;;;;12.92;100.00;100943.38;5109581;28;20549;-90
2022/11/07 10:08:33;;;;;;;9.43;1.77;;;;;;;12.99;100.00;100957.31;5061622;28;20047;-90
2022/11/07 10:11:02;;;;;;;13.10;1.63;;;;;;;13.12;100.00;100948.72;5104506;28;20028;-90
2022/11/07 10:13:40;;;;;;;10.13;2.10;;;;;;;13.25;100.00;100950.03;5094375;28;20019;-88
2022/11/07 10:16:36;;;;;;;9.43;1.77;;;;;;;13.33;100.00;100956.72;5107236;28;20118;-89
2022/11/07 10:19:38;;;;;;;8.27;1.70;;;;;;;13.30;100.00;100941.94;5108687;28;20297;-88
2022/11/07 10:22:45;;;;;;;11.98;1.92;;;;;;;13.33;100.00;100962.09;5108991;28;20040;-89
2022/11/07 10:25:26;;;;;;;13.75;1.77;;;;;;;13.25;100.00;100951.91;5088488;28;20067;-88
2022/11/07 10:28:06;;;;;;;10.68;1.90;;;;;;;13.21;100.00;100967.00;5109915;28;20028;-91
2022/11/07 10:30:33;;;;;;;8.85;2.08;;;;;;;13.17;100.00;100946.00;5165968;22;20562;-96
2022/11/07 10:33:15;;;;;;;11.27;2.05;;;;;;;13.39;100.00;100966.41;5060657;28;20029;-96
2022/11/07 10:35:53;;;;;;;14.07;2.03;;;;;;;13.42;100.00;100952.44;5052952;28;20136;-95
2022/11/07 10:38:26;;;;;;;12.10;2.08;;;;;;;13.64;100.00;100959.38;5035157;28;20113;-95
2022/11/07 10:40:52;;;;;;;10.07;1.90;;;;;;;13.59;100.00;100954.00;5049365;28;20029;-91
2022/11/07 10:43:32;;;;;;;14.43;1.88;;;;;;;13.63;100.00;100971.22;5048376;28;20036;-92
2022/11/07 10:46:00;;;;;;;15.73;2.58;;;;;;;13.68;100.00;100978.47;5048580;28;20480;-93
2022/11/07 10:48:28;;;;;;;14.47;2.10;;;;;;;13.68;100.00;100971.22;5050768;28;20029;-93
2022/11/07 10:50:54;;;;;;;12.70;2.00;;;;;;;13.76;100.00;100984.09;5051878;28;20394;-91
2022/11/07 10:53:22;;;;;;;15.48;1.95;;;;;;;13.86;100.00;100977.06;5049639;28;20033;-92
2022/11/07 10:55:49;;;;;;;13.63;2.20;;;;;;;13.92;99.53;100962.47;5050713;28;20024;-92
2022/11/07 10:58:23;;;;;;;9.30;1.80;;;;;;;14.05;100.00;100979.94;5049980;28;20096;-90
2022/11/07 11:01:06;;;;;;;9.40;2.00;;;;;;;14.04;98.34;100972.91;5049367;28;20033;-92
2022/11/07 11:03:43;;;;;;;15.25;2.13;;;;;;;14.00;96.88;100971.84;5049484;28;20021;-92
2022/11/07 11:06:27;;;;;;;12.77;2.50;;;;;;;14.19;96.84;100985.50;5049580;28;20024;-92
2022/11/07 11:08:53;;;;;;;11.68;2.28;;;;;;;14.25;95.81;100984.38;5050165;28;20029;-96
2022/11/07 11:11:27;;;;;;;12.50;1.90;;;;;;;14.28;95.11;100993.81;5037486;28;20373;-95
2022/11/07 11:14:09;;;;;;;11.00;1.77;;;;;;;14.19;95.98;100985.50;5051506;28;20480;-93
2022/11/07 11:16:37;;;;;;;9.63;2.03;;;;;;;14.11;94.62;100975.31;5051272;28;20024;-95
2022/11/07 11:19:03;;;;;;;14.63;2.60;;;;;;;14.05;94.34;100969.97;5051315;28;20036;-95
2022/11/07 11:21:43;;;;;;;12.50;2.38;;;;;;;14.09;94.73;100972.91;5051663;28;20021;-95
2022/11/07 11:24:20;;;;;;;11.65;2.40;;;;;;;14.08;94.73;100972.09;5048564;28;20025;-95
2022/11/07 11:26:49;;;;;;;13.97;2.10;;;;;;;14.17;94.80;100976.91;5052185;28;20067;-94
2022/11/07 11:29:25;;;;;;;14.52;2.28;;;;;;;14.13;93.04;100971.28;5051885;28;20472;-95
2022/11/07 11:31:53;;;;;;;11.93;2.08;;;;;;;14.16;94.12;100969.91;5043228;28;20403;-96
2022/11/07 11:34:50;;;;;;;13.43;2.17;;;;;;;14.23;94.37;100965.03;5055375;28;20480;-95
2022/11/07 11:37:18;;;;;;;12.50;2.67;;;;;;;14.33;93.75;100959.56;5057943;28;20029;-95
2022/11/07 11:39:48;;;;;;;15.15;2.10;;;;;;;14.42;92.93;100953.56;5053664;28;20491;-95
2022/11/07 11:42:45;;;;;;;8.83;1.90;;;;;;;14.54;93.25;100954.81;5052847;28;20094;-94
2022/11/07 11:45:24;;;;;;;13.50;2.30;;;;;;;14.43;92.43;100953.28;5052827;28;20786;-94
2022/11/07 11:47:59;;;;;;;12.30;2.35;;;;;;;14.32;92.05;100957.16;5054079;28;20036;-94
2022/11/07 11:50:37;;;;;;;15.50;2.17;;;;;;;14.30;93.44;100957.41;5053941;28;20029;-95
2022/11/07 11:53:03;;;;;;;12.77;2.00;;;;;;;14.30;92.26;100954.72;5039127;28;20116;-96
2022/11/07 11:55:37;;;;;;;15.13;2.37;;;;;;;14.28;93.31;100959.56;5058668;28;20025;-95
2022/11/07 11:58:29;;;;;;;15.13;2.05;;;;;;;14.26;93.57;100959.03;5060541;28;20383;-96
2022/11/07 12:01:14;;;;;;;12.75;2.00;;;;;;;14.29;93.50;100963.88;5041820;28;20684;-96
2022/11/07 12:03:57;;;;;;;14.30;2.17;;;;;;;14.36;93.11;100967.09;5045367;28;20112;-95
2022/11/07 12:06:50;;;;;;;15.20;1.98;;;;;;;14.45;93.16;100958.38;5079824;28;20075;-95
2022/11/07 12:09:43;;;;;;;11.47;1.70;;;;;;;14.45;92.66;100951.13;5077749;28;20028;-95
2022/11/07 12:12:08;;;;;;;10.83;1.80;;;;;;;14.47;91.62;100969.69;5065998;28;20651;-96
2022/11/07 12:14:48;;;;;;;10.60;2.37;;;;;;;14.51;92.54;100970.75;5056993;28;20025;-94
2022/11/07 12:17:16;;;;;;;9.83;1.87;;;;;;;14.59;91.66;100961.25;5056654;28;20286;-95
2022/11/07 12:19:49;;;;;;;10.63;1.95;;;;;;;14.57;90.57;100958.84;5056306;28;20051;-95
2022/11/07 12:22:48;;;;;;;13.40;2.28;;;;;;;14.61;91.30;100964.47;5057078;28;20488;-95
2022/11/07 12:25:28;;;;;;;11.75;2.03;;;;;;;14.63;90.40;100973.09;5056400;28;20112;-94
2022/11/07 12:28:31;;;;;;;12.95;2.05;;;;;;;14.57;90.53;100972.34;5057271;28;20039;-94
2022/11/07 12:31:40;;;;;;;12.13;2.43;;;;;;;14.49;90.97;100967.53;5054528;28;20041;-94
2022/11/07 12:34:26;;;;;;;9.77;2.03;;;;;;;14.53;90.56;100979.38;5055451;28;20287;-94
2022/11/07 12:37:18;;;;;;;13.90;1.95;;;;;;;14.61;91.00;100969.88;5058206;28;20035;-92
2022/11/07 12:40:22;;;;;;;11.60;1.70;;;;;;;14.82;90.51;100971.34;5055915;28;20032;-90
2022/11/07 12:43:10;;;;;;;10.50;2.10;;;;;;;14.96;89.22;100960.72;5066397;28;20028;-94
2022/11/07 12:46:09;;;;;;;10.90;1.90;;;;;;;15.10;88.98;100968.94;5041191;28;20395;-89